sensor_id;sensor_type;location;lat;lon;timestamp;pressure;altitude;pressure_sealevel;temperature;humidity
44685;BME280;76140;45.696;8.652;2024-03-23T00:55:43;98386.63;;;8.21;38.22
44685;BME280;76140;45.696;8.652;2024-03-23T00:58:09;98383.37;;;7.97;38.50
44685;BME280;76140;45.696;8.652;2024-03-23T01:00:34;98379.45;;;8.18;38.43
44685;BME280;76140;45.696;8.652;2024-03-23T01:02:59;98375.96;;;7.97;39.03
44685;BME280;76140;45.696;8.652;2024-03-23T01:05:24;98372.08;;;8.29;38.68
44685;BME280;76140;45.696;8.652;2024-03-23T01:07:50;98369.72;;;6.75;39.81
44685;BME280;76140;45.696;8.652;2024-03-23T01:10:15;98367.97;;;6.88;40.05
44685;BME280;76140;45.696;8.652;2024-03-23T01:12:41;98360.02;;;7.29;40.06
44685;BME280;76140;45.696;8.652;2024-03-23T01:15:07;98356.53;;;7.62;39.49
44685;BME280;76140;45.696;8.652;2024-03-23T01:17:32;98358.01;;;6.76;40.91
44685;BME280;76140;45.696;8.652;2024-03-23T01:19:58;98352.93;;;7.67;39.79
44685;BME280;76140;45.696;8.652;2024-03-23T01:22:23;98350.83;;;7.85;39.37
44685;BME280;76140;45.696;8.652;2024-03-23T01:24:48;98343.74;;;7.50;39.87
44685;BME280;76140;45.696;8.652;2024-03-23T01:27:14;98341.76;;;7.76;39.81
44685;BME280;76140;45.696;8.652;2024-03-23T01:29:39;98341.32;;;7.98;39.33
44685;BME280;76140;45.696;8.652;2024-03-23T01:32:05;98342.18;;;8.32;39.15
44685;BME280;76140;45.696;8.652;2024-03-23T01:34:30;98340.13;;;7.37;39.90
44685;BME280;76140;45.696;8.652;2024-03-23T01:36:56;98335.63;;;8.17;39.01
44685;BME280;76140;45.696;8.652;2024-03-23T01:39:21;98338.08;;;8.11;39.27
44685;BME280;76140;45.696;8.652;2024-03-23T01:41:46;98335.67;;;7.70;39.42
44685;BME280;76140;45.696;8.652;2024-03-23T01:44:12;98333.67;;;7.85;39.26
44685;BME280;76140;45.696;8.652;2024-03-23T01:46:37;98333.99;;;8.31;38.75
44685;BME280;76140;45.696;8.652;2024-03-23T01:49:02;98332.59;;;7.69;39.47
44685;BME280;76140;45.696;8.652;2024-03-23T01:51:29;98334.03;;;7.63;39.58
44685;BME280;76140;45.696;8.652;2024-03-23T01:53:54;98328.13;;;7.88;39.39
44685;BME280;76140;45.696;8.652;2024-03-23T01:56:19;98325.89;;;6.66;40.07
44685;BME280;76140;45.696;8.652;2024-03-23T01:58:44;98321.78;;;7.84;38.96
44685;BME280;76140;45.696;8.652;2024-03-23T02:01:09;98320.16;;;7.23;40.17
44685;BME280;76140;45.696;8.652;2024-03-23T02:03:35;98321.03;;;7.22;40.36
44685;BME280;76140;45.696;8.652;2024-03-23T02:06:00;98325.19;;;7.31;40.07
44685;BME280;76140;45.696;8.652;2024-03-23T02:08:25;98324.00;;;8.07;39.00
44685;BME280;76140;45.696;8.652;2024-03-23T02:10:51;98319.88;;;7.80;38.93
44685;BME280;76140;45.696;8.652;2024-03-23T02:13:18;98315.44;;;7.25;39.44
44685;BME280;76140;45.696;8.652;2024-03-23T02:15:42;98316.51;;;7.68;39.48
44685;BME280;76140;45.696;8.652;2024-03-23T02:18:07;98314.13;;;7.22;39.30
44685;BME280;76140;45.696;8.652;2024-03-23T02:20:32;98309.47;;;6.42;40.53
44685;BME280;76140;45.696;8.652;2024-03-23T02:22:58;98307.07;;;7.22;39.65
44685;BME280;76140;45.696;8.652;2024-03-23T02:25:23;98305.05;;;7.77;39.30
44685;BME280;76140;45.696;8.652;2024-03-23T02:27:49;98301.34;;;7.53;39.02
44685;BME280;76140;45.696;8.652;2024-03-23T02:30:14;98302.48;;;7.33;39.76
44685;BME280;76140;45.696;8.652;2024-03-23T02:32:40;98304.34;;;6.94;39.86
44685;BME280;76140;45.696;8.652;2024-03-23T02:35:06;98300.67;;;7.37;39.99
44685;BME280;76140;45.696;8.652;2024-03-23T02:37:30;98296.60;;;6.78;40.39
44685;BME280;76140;45.696;8.652;2024-03-23T02:39:56;98293.39;;;7.12;39.89
44685;BME280;76140;45.696;8.652;2024-03-23T02:42:22;98289.14;;;7.10;39.35
44685;BME280;76140;45.696;8.652;2024-03-23T02:44:47;98285.14;;;7.75;39.01
44685;BME280;76140;45.696;8.652;2024-03-23T02:47:13;98281.20;;;7.56;39.06
44685;BME280;76140;45.696;8.652;2024-03-23T02:49:38;98280.56;;;7.25;39.23
44685;BME280;76140;45.696;8.652;2024-03-23T02:52:03;98279.87;;;6.87;39.22
44685;BME280;76140;45.696;8.652;2024-03-23T02:54:28;98276.37;;;6.89;38.89
44685;BME280;76140;45.696;8.652;2024-03-23T02:56:53;98269.50;;;7.55;38.20
44685;BME280;76140;45.696;8.652;2024-03-23T02:59:18;98268.66;;;7.69;38.38
44685;BME280;76140;45.696;8.652;2024-03-23T03:01:43;98268.04;;;7.27;38.13
44685;BME280;76140;45.696;8.652;2024-03-23T03:04:09;98267.18;;;7.40;38.29
44685;BME280;76140;45.696;8.652;2024-03-23T03:06:35;98266.16;;;6.73;38.66
44685;BME280;76140;45.696;8.652;2024-03-23T03:09:01;98264.07;;;7.00;38.70
44685;BME280;76140;45.696;8.652;2024-03-23T03:11:26;98266.54;;;6.82;38.63
44685;BME280;76140;45.696;8.652;2024-03-23T03:13:52;98266.86;;;6.92;38.52
44685;BME280;76140;45.696;8.652;2024-03-23T03:16:18;98259.72;;;7.79;38.07
44685;BME280;76140;45.696;8.652;2024-03-23T03:18:43;98262.83;;;7.36;38.02
44685;BME280;76140;45.696;8.652;2024-03-23T03:21:09;98264.79;;;6.46;39.03
44685;BME280;76140;45.696;8.652;2024-03-23T03:23:34;98264.82;;;7.32;38.34
44685;BME280;76140;45.696;8.652;2024-03-23T03:26:00;98260.75;;;6.93;38.39
44685;BME280;76140;45.696;8.652;2024-03-23T03:28:25;98257.01;;;6.37;38.93
44685;BME280;76140;45.696;8.652;2024-03-23T03:30:50;98251.79;;;6.75;38.35
44685;BME280;76140;45.696;8.652;2024-03-23T03:33:15;98251.22;;;7.48;38.09
44685;BME280;76140;45.696;8.652;2024-03-23T03:35:41;98255.90;;;7.68;37.58
44685;BME280;76140;45.696;8.652;2024-03-23T03:38:07;98251.03;;;7.91;37.37
44685;BME280;76140;45.696;8.652;2024-03-23T03:40:33;98249.70;;;7.55;37.40
44685;BME280;76140;45.696;8.652;2024-03-23T03:42:58;98244.96;;;6.93;38.26
44685;BME280;76140;45.696;8.652;2024-03-23T03:45:23;98246.85;;;7.11;37.80
44685;BME280;76140;45.696;8.652;2024-03-23T03:47:49;98248.21;;;7.69;37.67
44685;BME280;76140;45.696;8.652;2024-03-23T03:50:15;98242.91;;;7.69;37.42
44685;BME280;76140;45.696;8.652;2024-03-23T03:52:40;98239.71;;;7.44;37.46
44685;BME280;76140;45.696;8.652;2024-03-23T03:55:12;98234.95;;;7.94;37.17
44685;BME280;76140;45.696;8.652;2024-03-23T03:57:30;98237.96;;;7.19;37.82
44685;BME280;76140;45.696;8.652;2024-03-23T03:59:56;98241.54;;;7.90;37.02
44685;BME280;76140;45.696;8.652;2024-03-23T04:02:21;98233.59;;;7.82;37.13
44685;BME280;76140;45.696;8.652;2024-03-23T04:04:46;98225.73;;;7.53;37.39
44685;BME280;76140;45.696;8.652;2024-03-23T04:07:12;98223.47;;;7.60;37.18
44685;BME280;76140;45.696;8.652;2024-03-23T04:09:38;98224.43;;;7.33;37.15
44685;BME280;76140;45.696;8.652;2024-03-23T04:12:04;98225.30;;;7.58;37.26
44685;BME280;76140;45.696;8.652;2024-03-23T04:14:29;98221.40;;;7.40;37.16
44685;BME280;76140;45.696;8.652;2024-03-23T04:16:54;98212.19;;;7.01;37.38
44685;BME280;76140;45.696;8.652;2024-03-23T04:19:20;98213.13;;;7.45;37.54
44685;BME280;76140;45.696;8.652;2024-03-23T04:21:45;98213.91;;;7.55;37.53
44685;BME280;76140;45.696;8.652;2024-03-23T04:24:10;98212.64;;;7.37;37.60
44685;BME280;76140;45.696;8.652;2024-03-23T04:26:41;98213.29;;;7.28;37.23
44685;BME280;76140;45.696;8.652;2024-03-23T04:29:01;98213.70;;;7.20;37.23
44685;BME280;76140;45.696;8.652;2024-03-23T04:31:26;98213.49;;;7.52;37.27
44685;BME280;76140;45.696;8.652;2024-03-23T04:33:51;98213.33;;;7.35;37.00
44685;BME280;76140;45.696;8.652;2024-03-23T04:36:16;98211.72;;;7.61;36.93
44685;BME280;76140;45.696;8.652;2024-03-23T04:38:42;98210.82;;;7.92;36.65
44685;BME280;76140;45.696;8.652;2024-03-23T04:41:07;98207.53;;;7.60;36.75
44685;BME280;76140;45.696;8.652;2024-03-23T04:43:32;98208.18;;;7.32;36.77
44685;BME280;76140;45.696;8.652;2024-03-23T04:45:58;98205.39;;;7.52;36.88
44685;BME280;76140;45.696;8.652;2024-03-23T04:48:23;98204.20;;;7.30;36.81
44685;BME280;76140;45.696;8.652;2024-03-23T04:50:49;98202.56;;;6.96;37.06
44685;BME280;76140;45.696;8.652;2024-03-23T04:53:14;98197.79;;;6.64;37.74
44685;BME280;76140;45.696;8.652;2024-03-23T04:55:39;98191.59;;;5.95;37.99
44685;BME280;76140;45.696;8.652;2024-03-23T04:58:05;98184.05;;;7.10;37.07
44685;BME280;76140;45.696;8.652;2024-03-23T05:00:30;98178.56;;;6.39;37.69
44685;BME280;76140;45.696;8.652;2024-03-23T05:02:55;98177.96;;;6.76;37.17
44685;BME280;76140;45.696;8.652;2024-03-23T05:05:20;98181.94;;;7.32;36.75
44685;BME280;76140;45.696;8.652;2024-03-23T05:07:46;98186.88;;;7.32;37.29
44685;BME280;76140;45.696;8.652;2024-03-23T05:10:12;98188.19;;;7.51;36.91
44685;BME280;76140;45.696;8.652;2024-03-23T05:12:37;98189.26;;;7.56;36.96
44685;BME280;76140;45.696;8.652;2024-03-23T05:15:03;98188.64;;;7.24;37.03
44685;BME280;76140;45.696;8.652;2024-03-23T05:17:28;98183.03;;;6.75;37.46
44685;BME280;76140;45.696;8.652;2024-03-23T05:19:54;98180.61;;;7.23;37.58
44685;BME280;76140;45.696;8.652;2024-03-23T05:22:19;98181.51;;;7.25;37.38
44685;BME280;76140;45.696;8.652;2024-03-23T05:24:45;98184.92;;;7.05;37.44
44685;BME280;76140;45.696;8.652;2024-03-23T05:27:11;98185.68;;;7.17;37.24
44685;BME280;76140;45.696;8.652;2024-03-23T05:29:37;98182.95;;;7.06;37.69
44685;BME280;76140;45.696;8.652;2024-03-23T05:32:02;98178.33;;;7.35;37.67
44685;BME280;76140;45.696;8.652;2024-03-23T05:34:28;98180.35;;;7.26;37.29
44685;BME280;76140;45.696;8.652;2024-03-23T05:36:53;98174.70;;;6.68;37.55
44685;BME280;76140;45.696;8.652;2024-03-23T05:39:18;98169.64;;;7.65;36.72
44685;BME280;76140;45.696;8.652;2024-03-23T05:41:44;98172.49;;;7.77;36.91
44685;BME280;76140;45.696;8.652;2024-03-23T05:44:09;98164.08;;;7.65;36.79
44685;BME280;76140;45.696;8.652;2024-03-23T05:46:34;98159.99;;;6.35;37.96
44685;BME280;76140;45.696;8.652;2024-03-23T05:49:01;98153.81;;;6.48;37.75
44685;BME280;76140;45.696;8.652;2024-03-23T05:51:25;98148.82;;;7.79;36.59
44685;BME280;76140;45.696;8.652;2024-03-23T05:53:51;98148.95;;;7.82;36.35
44685;BME280;76140;45.696;8.652;2024-03-23T05:56:20;98149.69;;;7.40;36.31
44685;BME280;76140;45.696;8.652;2024-03-23T05:58:41;98146.59;;;8.07;35.81
44685;BME280;76140;45.696;8.652;2024-03-23T06:01:07;98143.23;;;8.30;35.83
44685;BME280;76140;45.696;8.652;2024-03-23T06:03:32;98137.59;;;8.31;35.71
44685;BME280;76140;45.696;8.652;2024-03-23T06:05:57;98133.23;;;6.78;36.37
44685;BME280;76140;45.696;8.652;2024-03-23T06:08:22;98125.23;;;8.08;35.19
44685;BME280;76140;45.696;8.652;2024-03-23T06:10:47;98125.69;;;8.15;35.19
44685;BME280;76140;45.696;8.652;2024-03-23T06:13:12;98125.08;;;8.59;34.76
44685;BME280;76140;45.696;8.652;2024-03-23T06:15:37;98123.87;;;8.66;34.53
44685;BME280;76140;45.696;8.652;2024-03-23T06:18:03;98122.11;;;9.14;34.33
44685;BME280;76140;45.696;8.652;2024-03-23T06:20:28;98122.61;;;9.36;34.63
44685;BME280;76140;45.696;8.652;2024-03-23T06:22:54;98122.59;;;9.25;34.14
44685;BME280;76140;45.696;8.652;2024-03-23T06:25:19;98120.05;;;8.93;34.38
44685;BME280;76140;45.696;8.652;2024-03-23T06:27:45;98119.08;;;9.33;33.72
44685;BME280;76140;45.696;8.652;2024-03-23T06:30:12;98109.25;;;10.23;33.34
44685;BME280;76140;45.696;8.652;2024-03-23T06:32:36;98106.57;;;10.13;33.06
44685;BME280;76140;45.696;8.652;2024-03-23T06:35:01;98114.49;;;10.41;32.78
44685;BME280;76140;45.696;8.652;2024-03-23T06:37:26;98119.15;;;10.64;32.20
44685;BME280;76140;45.696;8.652;2024-03-23T06:39:52;98111.77;;;10.47;32.69
44685;BME280;76140;45.696;8.652;2024-03-23T06:42:18;98112.96;;;11.01;31.92
44685;BME280;76140;45.696;8.652;2024-03-23T06:44:44;98114.46;;;10.94;31.86
44685;BME280;76140;45.696;8.652;2024-03-23T06:47:09;98112.79;;;10.19;33.10
44685;BME280;76140;45.696;8.652;2024-03-23T06:49:35;98113.67;;;10.40;32.53
44685;BME280;76140;45.696;8.652;2024-03-23T06:52:00;98115.60;;;9.41;32.96
44685;BME280;76140;45.696;8.652;2024-03-23T06:54:26;98115.41;;;10.62;31.98
44685;BME280;76140;45.696;8.652;2024-03-23T06:56:51;98111.28;;;11.49;31.76
44685;BME280;76140;45.696;8.652;2024-03-23T06:59:16;98104.81;;;11.64;31.49
44685;BME280;76140;45.696;8.652;2024-03-23T07:01:42;98099.26;;;11.12;31.69
44685;BME280;76140;45.696;8.652;2024-03-23T07:04:08;98099.53;;;11.84;30.79
44685;BME280;76140;45.696;8.652;2024-03-23T07:06:33;98103.83;;;12.42;30.41
44685;BME280;76140;45.696;8.652;2024-03-23T07:08:58;98104.70;;;13.75;28.78
44685;BME280;76140;45.696;8.652;2024-03-23T07:11:24;98096.20;;;15.23;26.34
44685;BME280;76140;45.696;8.652;2024-03-23T07:13:50;98098.69;;;17.04;25.03
44685;BME280;76140;45.696;8.652;2024-03-23T07:16:14;98105.13;;;18.36;23.39
44685;BME280;76140;45.696;8.652;2024-03-23T07:18:40;98096.61;;;19.67;22.06
44685;BME280;76140;45.696;8.652;2024-03-23T07:21:05;98090.18;;;19.56;21.53
44685;BME280;76140;45.696;8.652;2024-03-23T07:23:30;98091.77;;;19.14;21.99
44685;BME280;76140;45.696;8.652;2024-03-23T07:25:57;98086.23;;;19.27;21.98
44685;BME280;76140;45.696;8.652;2024-03-23T07:28:21;98088.90;;;18.71;22.16
44685;BME280;76140;45.696;8.652;2024-03-23T07:30:46;98091.52;;;19.96;21.61
44685;BME280;76140;45.696;8.652;2024-03-23T07:33:12;98089.98;;;20.23;21.18
44685;BME280;76140;45.696;8.652;2024-03-23T07:35:38;98085.87;;;18.74;22.37
44685;BME280;76140;45.696;8.652;2024-03-23T07:38:04;98089.96;;;17.19;22.86
44685;BME280;76140;45.696;8.652;2024-03-23T07:40:29;98095.18;;;16.87;24.12
44685;BME280;76140;45.696;8.652;2024-03-23T07:42:54;98094.26;;;17.59;24.14
44685;BME280;76140;45.696;8.652;2024-03-23T07:45:19;98079.03;;;17.38;24.11
44685;BME280;76140;45.696;8.652;2024-03-23T07:47:45;98077.76;;;18.11;24.18
44685;BME280;76140;45.696;8.652;2024-03-23T07:50:11;98074.18;;;17.33;24.39
44685;BME280;76140;45.696;8.652;2024-03-23T07:52:36;98078.29;;;17.50;24.54
44685;BME280;76140;45.696;8.652;2024-03-23T07:55:02;98077.43;;;17.78;24.18
44685;BME280;76140;45.696;8.652;2024-03-23T07:57:27;98082.27;;;18.87;23.56
44685;BME280;76140;45.696;8.652;2024-03-23T07:59:53;98079.67;;;18.43;24.30
44685;BME280;76140;45.696;8.652;2024-03-23T08:02:19;98076.05;;;18.88;24.01
44685;BME280;76140;45.696;8.652;2024-03-23T08:04:44;98082.16;;;18.47;23.86
44685;BME280;76140;45.696;8.652;2024-03-23T08:07:09;98085.87;;;18.02;24.21
44685;BME280;76140;45.696;8.652;2024-03-23T08:09:35;98081.74;;;16.48;25.52
44685;BME280;76140;45.696;8.652;2024-03-23T08:12:01;98076.54;;;17.55;25.10
44685;BME280;76140;45.696;8.652;2024-03-23T08:14:26;98079.27;;;18.96;23.63
44685;BME280;76140;45.696;8.652;2024-03-23T08:16:51;98074.72;;;19.55;23.34
44685;BME280;76140;45.696;8.652;2024-03-23T08:19:17;98071.18;;;17.31;24.69
44685;BME280;76140;45.696;8.652;2024-03-23T08:21:42;98065.25;;;16.60;25.18
44685;BME280;76140;45.696;8.652;2024-03-23T08:24:08;98061.89;;;15.92;25.83
44685;BME280;76140;45.696;8.652;2024-03-23T08:26:33;98059.03;;;16.42;25.61
44685;BME280;76140;45.696;8.652;2024-03-23T08:28:58;98046.98;;;17.36;25.10
44685;BME280;76140;45.696;8.652;2024-03-23T08:31:24;98039.53;;;17.48;24.74
44685;BME280;76140;45.696;8.652;2024-03-23T08:33:49;98035.61;;;18.01;24.51
44685;BME280;76140;45.696;8.652;2024-03-23T08:36:15;98025.67;;;17.74;23.78
44685;BME280;76140;45.696;8.652;2024-03-23T08:38:41;98020.81;;;19.87;22.16
44685;BME280;76140;45.696;8.652;2024-03-23T08:41:07;98011.89;;;20.32;21.60
44685;BME280;76140;45.696;8.652;2024-03-23T08:43:33;98011.09;;;22.24;20.54
44685;BME280;76140;45.696;8.652;2024-03-23T08:46:04;98007.88;;;22.64;20.15
44685;BME280;76140;45.696;8.652;2024-03-23T08:48:23;98007.23;;;23.31;20.07
44685;BME280;76140;45.696;8.652;2024-03-23T08:50:59;98002.91;;;21.50;20.18
44685;BME280;76140;45.696;8.652;2024-03-23T08:53:14;97994.60;;;22.42;19.70
44685;BME280;76140;45.696;8.652;2024-03-23T08:55:39;97989.16;;;19.61;21.19
44685;BME280;76140;45.696;8.652;2024-03-23T08:58:04;97984.49;;;18.18;22.36
44685;BME280;76140;45.696;8.652;2024-03-23T09:00:30;97982.82;;;19.05;22.85
44685;BME280;76140;45.696;8.652;2024-03-23T09:02:55;97976.48;;;20.37;21.75
44685;BME280;76140;45.696;8.652;2024-03-23T09:05:21;97977.27;;;22.45;20.31
44685;BME280;76140;45.696;8.652;2024-03-23T09:07:46;97969.45;;;23.26;19.60
44685;BME280;76140;45.696;8.652;2024-03-23T09:10:12;97967.29;;;24.02;18.61
44685;BME280;76140;45.696;8.652;2024-03-23T09:12:37;97965.47;;;20.01;20.92
44685;BME280;76140;45.696;8.652;2024-03-23T09:15:03;97970.96;;;18.00;23.00
44685;BME280;76140;45.696;8.652;2024-03-23T09:17:28;97964.56;;;20.74;21.90
44685;BME280;76140;45.696;8.652;2024-03-23T09:19:54;97959.04;;;23.36;19.83
44685;BME280;76140;45.696;8.652;2024-03-23T09:22:19;97953.77;;;24.69;18.71
44685;BME280;76140;45.696;8.652;2024-03-23T09:24:45;97952.44;;;21.14;20.12
44685;BME280;76140;45.696;8.652;2024-03-23T09:27:11;97953.14;;;16.62;23.22
44685;BME280;76140;45.696;8.652;2024-03-23T09:29:36;97952.26;;;18.14;22.03
44685;BME280;76140;45.696;8.652;2024-03-23T09:32:02;97948.98;;;19.69;22.81
44685;BME280;76140;45.696;8.652;2024-03-23T09:34:27;97942.74;;;20.48;21.76
44685;BME280;76140;45.696;8.652;2024-03-23T09:36:53;97942.72;;;19.60;21.99
44685;BME280;76140;45.696;8.652;2024-03-23T09:39:19;97947.97;;;16.60;24.41
44685;BME280;76140;45.696;8.652;2024-03-23T09:41:44;97942.83;;;18.35;24.02
44685;BME280;76140;45.696;8.652;2024-03-23T09:44:10;97943.80;;;19.43;23.01
44685;BME280;76140;45.696;8.652;2024-03-23T09:46:35;97938.80;;;20.27;22.13
44685;BME280;76140;45.696;8.652;2024-03-23T09:49:01;97937.49;;;19.23;23.30
44685;BME280;76140;45.696;8.652;2024-03-23T09:51:27;97929.13;;;18.90;24.03
44685;BME280;76140;45.696;8.652;2024-03-23T09:53:52;97920.36;;;18.21;24.07
44685;BME280;76140;45.696;8.652;2024-03-23T09:56:17;97913.63;;;13.66;27.99
44685;BME280;76140;45.696;8.652;2024-03-23T09:58:43;97912.88;;;17.49;24.82
44685;BME280;76140;45.696;8.652;2024-03-23T10:01:09;97905.86;;;15.85;25.08
44685;BME280;76140;45.696;8.652;2024-03-23T10:03:43;97894.98;;;21.98;21.53
44685;BME280;76140;45.696;8.652;2024-03-23T10:06:01;97890.10;;;23.87;20.11
44685;BME280;76140;45.696;8.652;2024-03-23T10:08:25;97889.97;;;21.85;20.88
44685;BME280;76140;45.696;8.652;2024-03-23T10:10:50;97897.11;;;19.33;21.13
44685;BME280;76140;45.696;8.652;2024-03-23T10:13:24;97878.08;;;22.60;19.89
44685;BME280;76140;45.696;8.652;2024-03-23T10:15:40;97881.00;;;19.81;21.11
44685;BME280;76140;45.696;8.652;2024-03-23T10:18:17;97871.16;;;20.68;20.66
44685;BME280;76140;45.696;8.652;2024-03-23T10:20:31;97868.42;;;22.09;20.27
44685;BME280;76140;45.696;8.652;2024-03-23T10:22:57;97871.65;;;19.01;22.29
44685;BME280;76140;45.696;8.652;2024-03-23T10:25:23;97878.91;;;14.18;25.31
44685;BME280;76140;45.696;8.652;2024-03-23T10:27:58;97857.89;;;17.14;24.61
44685;BME280;76140;45.696;8.652;2024-03-23T10:30:14;97852.31;;;19.22;23.08
44685;BME280;76140;45.696;8.652;2024-03-23T10:32:39;97846.82;;;21.69;21.60
44685;BME280;76140;45.696;8.652;2024-03-23T10:35:16;97843.72;;;20.32;21.69
44685;BME280;76140;45.696;8.652;2024-03-23T10:37:30;97836.39;;;22.34;20.06
44685;BME280;76140;45.696;8.652;2024-03-23T10:39:55;97820.88;;;18.89;22.51
44685;BME280;76140;45.696;8.652;2024-03-23T10:42:21;97822.07;;;16.28;25.51
44685;BME280;76140;45.696;8.652;2024-03-23T10:44:46;97815.75;;;14.54;27.44
44685;BME280;76140;45.696;8.652;2024-03-23T10:47:12;97814.44;;;16.08;26.55
44685;BME280;76140;45.696;8.652;2024-03-23T10:49:37;97805.86;;;15.84;26.28
44685;BME280;76140;45.696;8.652;2024-03-23T10:52:04;97788.88;;;18.04;24.95
44685;BME280;76140;45.696;8.652;2024-03-23T10:54:30;97790.17;;;16.76;25.61
44685;BME280;76140;45.696;8.652;2024-03-23T10:56:57;97782.74;;;17.51;24.81
44685;BME280;76140;45.696;8.652;2024-03-23T10:59:19;97786.01;;;14.81;26.46
44685;BME280;76140;45.696;8.652;2024-03-23T11:01:54;97783.61;;;14.58;26.39
44685;BME280;76140;45.696;8.652;2024-03-23T11:04:09;97776.22;;;14.15;27.19
44685;BME280;76140;45.696;8.652;2024-03-23T11:06:35;97773.92;;;16.53;25.28
44685;BME280;76140;45.696;8.652;2024-03-23T11:09:00;97780.83;;;13.27;28.20
44685;BME280;76140;45.696;8.652;2024-03-23T11:11:25;97763.27;;;15.03;27.19
44685;BME280;76140;45.696;8.652;2024-03-23T11:13:52;97759.23;;;14.21;28.13
44685;BME280;76140;45.696;8.652;2024-03-23T11:16:17;97754.13;;;14.36;27.93
44685;BME280;76140;45.696;8.652;2024-03-23T11:18:43;97749.29;;;13.98;28.10
44685;BME280;76140;45.696;8.652;2024-03-23T11:21:07;97746.04;;;15.68;26.94
44685;BME280;76140;45.696;8.652;2024-03-23T11:23:33;97747.72;;;16.90;25.67
44685;BME280;76140;45.696;8.652;2024-03-23T11:25:58;97749.50;;;15.23;26.90
44685;BME280;76140;45.696;8.652;2024-03-23T11:28:24;97744.01;;;16.10;25.99
44685;BME280;76140;45.696;8.652;2024-03-23T11:30:49;97741.65;;;16.23;26.10
44685;BME280;76140;45.696;8.652;2024-03-23T11:33:14;97737.19;;;15.74;26.31
44685;BME280;76140;45.696;8.652;2024-03-23T11:35:40;97732.69;;;14.48;27.07
44685;BME280;76140;45.696;8.652;2024-03-23T11:38:06;97731.88;;;14.64;27.37
44685;BME280;76140;45.696;8.652;2024-03-23T11:40:30;97730.29;;;15.32;26.68
44685;BME280;76140;45.696;8.652;2024-03-23T11:42:56;97724.57;;;16.02;26.16
44685;BME280;76140;45.696;8.652;2024-03-23T11:45:21;97724.79;;;17.00;25.28
44685;BME280;76140;45.696;8.652;2024-03-23T11:47:46;97721.49;;;18.29;24.74
44685;BME280;76140;45.696;8.652;2024-03-23T11:50:19;97715.37;;;17.12;25.06
44685;BME280;76140;45.696;8.652;2024-03-23T11:52:37;97719.13;;;16.10;25.57
44685;BME280;76140;45.696;8.652;2024-03-23T11:55:05;97705.26;;;18.84;24.01
44685;BME280;76140;45.696;8.652;2024-03-23T11:57:28;97698.54;;;17.34;24.62
44685;BME280;76140;45.696;8.652;2024-03-23T11:59:53;97695.49;;;17.77;24.42
44685;BME280;76140;45.696;8.652;2024-03-23T12:02:18;97694.54;;;17.20;24.38
44685;BME280;76140;45.696;8.652;2024-03-23T12:04:44;97693.64;;;16.78;25.20
44685;BME280;76140;45.696;8.652;2024-03-23T12:07:11;97695.39;;;17.28;24.95
44685;BME280;76140;45.696;8.652;2024-03-23T12:09:35;97691.60;;;17.29;25.12
44685;BME280;76140;45.696;8.652;2024-03-23T12:12:06;97686.39;;;16.40;25.30
44685;BME280;76140;45.696;8.652;2024-03-23T12:14:25;97690.31;;;16.54;25.38
44685;BME280;76140;45.696;8.652;2024-03-23T12:16:51;97683.19;;;16.33;25.36
44685;BME280;76140;45.696;8.652;2024-03-23T12:19:16;97680.34;;;12.90;27.57
44685;BME280;76140;45.696;8.652;2024-03-23T12:21:41;97684.49;;;15.43;26.54
44685;BME280;76140;45.696;8.652;2024-03-23T12:24:07;97689.36;;;14.79;26.66
44685;BME280;76140;45.696;8.652;2024-03-23T12:26:32;97689.90;;;15.85;25.78
44685;BME280;76140;45.696;8.652;2024-03-23T12:28:58;97701.97;;;15.37;25.80
44685;BME280;76140;45.696;8.652;2024-03-23T12:31:23;97703.09;;;15.66;25.99
44685;BME280;76140;45.696;8.652;2024-03-23T12:33:49;97696.24;;;16.72;25.70
44685;BME280;76140;45.696;8.652;2024-03-23T12:36:14;97703.60;;;17.07;26.34
44685;BME280;76140;45.696;8.652;2024-03-23T12:38:40;97707.66;;;16.71;26.27
44685;BME280;76140;45.696;8.652;2024-03-23T12:41:05;97698.38;;;16.31;26.39
44685;BME280;76140;45.696;8.652;2024-03-23T12:43:31;97694.21;;;15.42;26.91
44685;BME280;76140;45.696;8.652;2024-03-23T12:45:57;97676.75;;;14.12;28.24
44685;BME280;76140;45.696;8.652;2024-03-23T12:48:23;97661.08;;;13.32;29.53
44685;BME280;76140;45.696;8.652;2024-03-23T12:50:48;97658.19;;;13.12;30.00
44685;BME280;76140;45.696;8.652;2024-03-23T12:53:14;97644.22;;;12.75;30.21
44685;BME280;76140;45.696;8.652;2024-03-23T12:55:39;97634.65;;;14.41;28.84
44685;BME280;76140;45.696;8.652;2024-03-23T12:58:04;97638.68;;;14.58;28.72
44685;BME280;76140;45.696;8.652;2024-03-23T13:00:30;97638.65;;;14.83;28.26
44685;BME280;76140;45.696;8.652;2024-03-23T13:02:55;97638.18;;;13.54;29.13
44685;BME280;76140;45.696;8.652;2024-03-23T13:05:20;97628.18;;;13.28;29.85
44685;BME280;76140;45.696;8.652;2024-03-23T13:07:46;97620.98;;;13.40;30.09
44685;BME280;76140;45.696;8.652;2024-03-23T13:10:12;97621.49;;;11.91;31.68
44685;BME280;76140;45.696;8.652;2024-03-23T13:12:36;97609.34;;;14.51;30.19
44685;BME280;76140;45.696;8.652;2024-03-23T13:15:02;97605.67;;;14.45;28.92
44685;BME280;76140;45.696;8.652;2024-03-23T13:17:27;97601.27;;;14.70;29.96
44685;BME280;76140;45.696;8.652;2024-03-23T13:19:53;97597.16;;;13.06;30.21
44685;BME280;76140;45.696;8.652;2024-03-23T13:22:18;97600.39;;;15.39;29.43
44685;BME280;76140;45.696;8.652;2024-03-23T13:24:44;97604.02;;;14.64;30.26
44685;BME280;76140;45.696;8.652;2024-03-23T13:27:09;97603.24;;;14.25;30.80
44685;BME280;76140;45.696;8.652;2024-03-23T13:29:34;97599.71;;;14.65;29.48
44685;BME280;76140;45.696;8.652;2024-03-23T13:31:59;97598.81;;;14.37;29.98
44685;BME280;76140;45.696;8.652;2024-03-23T13:34:25;97602.22;;;15.10;29.58
44685;BME280;76140;45.696;8.652;2024-03-23T13:36:51;97603.97;;;15.44;28.94
44685;BME280;76140;45.696;8.652;2024-03-23T13:39:15;97608.72;;;15.43;29.10
44685;BME280;76140;45.696;8.652;2024-03-23T13:41:43;97614.01;;;15.68;28.89
44685;BME280;76140;45.696;8.652;2024-03-23T13:44:07;97624.42;;;15.66;28.60
44685;BME280;76140;45.696;8.652;2024-03-23T13:46:32;97625.18;;;15.94;28.71
44685;BME280;76140;45.696;8.652;2024-03-23T13:48:58;97618.57;;;15.75;28.57